createdAt,value
2022-08-25T00:01:09.025Z,7.2
2022-08-25T00:03:06.581Z,8.4
2022-08-25T00:10:59.907Z,9.4
2022-08-25T00:16:57.252Z,6.8
2022-08-25T00:18:54.758Z,9.2
2022-08-25T00:19:57.539Z,9.6
2022-08-25T00:21:55.046Z,9
2022-08-25T00:23:52.580Z,7.5
2022-08-25T00:29:53.140Z,9.5
2022-08-25T00:31:50.652Z,9.3
2022-08-25T00:33:48.189Z,9.3
2022-08-25T00:35:45.700Z,7.1
2022-08-25T00:39:40.779Z,9.2
2022-08-25T00:41:46.269Z,9.7
2022-08-25T00:43:43.805Z,9.8
2022-08-25T00:45:41.332Z,9.4
2022-08-25T00:47:38.857Z,9.9
2022-08-25T00:53:31.508Z,9.2
2022-08-25T00:55:37.013Z,9.9
2022-08-25T00:59:32.066Z,10
2022-08-25T01:01:29.651Z,10.2
2022-08-25T01:03:33.201Z,8.3
2022-08-25T01:05:24.677Z,9.9
2022-08-25T01:07:22.211Z,10.3
2022-08-25T01:09:27.709Z,9.4
2022-08-25T01:11:25.259Z,10.4
2022-08-25T01:13:22.827Z,9.4
2022-08-25T01:15:46.386Z,10.2
2022-08-25T01:17:43.752Z,9.9
2022-08-25T01:19:41.303Z,10.5
2022-08-25T01:21:46.828Z,9
2022-08-25T01:23:44.355Z,8
2022-08-25T01:27:39.415Z,9.2
2022-08-25T01:29:36.966Z,8.4
2022-08-25T01:35:37.601Z,8.8
2022-08-25T01:39:32.703Z,8.7
2022-08-25T01:41:30.445Z,7.8
2022-08-25T01:43:27.830Z,7.2
2022-08-25T01:45:25.386Z,8.6
2022-08-25T01:47:22.948Z,7.9
2022-08-25T01:49:28.467Z,9.8
2022-08-25T01:51:25.989Z,8.5
2022-08-25T01:53:23.527Z,7.7
2022-08-25T01:55:21.069Z,11.7
2022-08-25T01:57:18.638Z,8.1
2022-08-25T01:59:16.200Z,10.2
2022-08-25T02:01:13.860Z,8.9
2022-08-25T02:03:19.319Z,8.4
2022-08-25T02:05:20.324Z,10
2022-08-25T02:07:14.357Z,8.2
2022-08-25T02:08:17.141Z,9
2022-08-25T02:10:14.698Z,9
2022-08-25T02:12:12.256Z,9.6
2022-08-25T02:14:09.806Z,9.8
2022-08-25T02:16:15.351Z,9.7
2022-08-25T02:18:12.879Z,9.1
2022-08-25T02:20:10.431Z,9.4
2022-08-25T02:22:08.156Z,9.7
2022-08-25T02:26:03.145Z,8.1
2022-08-25T02:28:00.775Z,11.3
2022-08-25T02:34:01.348Z,7.9
2022-08-25T02:35:58.940Z,10.4
2022-08-25T02:37:56.472Z,8.6
2022-08-25T02:39:54.079Z,10.8
2022-08-25T02:41:51.595Z,8.6
2022-08-25T02:43:57.102Z,10.8
2022-08-25T02:45:54.761Z,8.4
2022-08-25T02:47:52.236Z,10
2022-08-25T02:49:49.781Z,8.3
2022-08-25T02:51:47.360Z,8.8
2022-08-25T02:53:44.912Z,9.3
2022-08-25T02:55:42.472Z,8.4
2022-08-25T02:59:45.566Z,10.9
2022-08-25T03:01:43.166Z,8.9
2022-08-25T03:02:45.913Z,9.1
2022-08-25T03:04:43.551Z,11.3
2022-08-25T03:06:41.071Z,9.3
2022-08-25T03:08:38.604Z,9.6
2022-08-25T03:10:44.123Z,8.3
2022-08-25T03:12:41.707Z,9.8
2022-08-25T03:14:39.268Z,9.6
2022-08-25T03:16:36.893Z,11.1
2022-08-25T03:18:34.405Z,9.2
2022-08-25T03:20:31.948Z,10.1
2022-08-25T03:22:29.509Z,10.7
2022-08-25T03:24:35.010Z,9.9
2022-08-25T03:26:32.585Z,10.2
2022-08-25T03:34:22.814Z,11.1
2022-08-25T03:36:20.408Z,9
2022-08-25T03:38:25.892Z,10.3
2022-08-25T03:40:23.550Z,10
2022-08-25T03:42:21.034Z,10
2022-08-25T03:44:18.606Z,9.7
2022-08-25T03:46:16.216Z,10.4
2022-08-25T03:48:13.944Z,10.4
2022-08-25T03:50:11.282Z,10.4
2022-08-25T03:52:16.816Z,10.5
2022-08-25T03:54:14.386Z,9.4
2022-08-25T03:57:14.726Z,9.1
2022-08-25T03:59:12.307Z,9.5
2022-08-25T04:01:09.980Z,9.8
2022-08-25T04:03:07.472Z,9.9
2022-08-25T04:05:12.967Z,10.7
2022-08-25T04:07:10.545Z,10.5
2022-08-25T04:09:08.101Z,8.4
2022-08-25T04:11:05.708Z,9.7
2022-08-25T04:13:03.287Z,10.8
2022-08-25T04:21:01.562Z,9.7
2022-08-25T04:22:59.131Z,10.3
2022-08-25T04:24:56.695Z,8.9
2022-08-25T04:26:54.257Z,12
2022-08-25T04:28:51.817Z,10.3
2022-08-25T04:30:52.091Z,10.1
2022-08-25T04:32:54.924Z,9.8
2022-08-25T04:34:52.507Z,10.1
2022-08-25T04:36:52.692Z,11.5
2022-08-25T04:38:47.684Z,11.4
2022-08-25T04:40:45.242Z,9.9
2022-08-25T04:42:42.842Z,12
2022-08-25T04:46:45.968Z,12.1
2022-08-25T04:48:43.553Z,10.5
2022-08-25T04:50:41.115Z,11.3
2022-08-25T04:53:08.061Z,10.4
2022-08-25T04:55:05.651Z,10.8
2022-08-25T04:57:03.205Z,9.5
2022-08-25T04:59:08.758Z,9.3
2022-08-25T05:01:06.429Z,12.7
2022-08-25T05:05:01.523Z,9
2022-08-25T05:06:59.072Z,10.6
2022-08-25T05:08:56.662Z,9.9
2022-08-25T05:10:55.129Z,10.9
2022-08-25T05:13:00.684Z,10.8
2022-08-25T05:14:58.262Z,9.4
2022-08-25T05:16:55.818Z,8.8
2022-08-25T05:18:53.397Z,8.6
2022-08-25T05:20:50.975Z,12
2022-08-25T05:22:48.549Z,10.3
2022-08-25T05:24:46.161Z,12.4
2022-08-25T05:26:53.277Z,9.9
2022-08-25T05:28:50.830Z,10.9
2022-08-25T05:30:48.415Z,9.1
2022-08-25T05:32:45.990Z,10.5
2022-08-25T05:34:43.550Z,9.9
2022-08-25T05:36:41.131Z,10
2022-08-25T05:38:38.720Z,11.2
2022-08-25T05:40:44.248Z,7.7
2022-08-25T05:42:41.845Z,9.8
2022-08-25T05:44:39.411Z,10.7
2022-08-25T05:45:42.235Z,9.1
2022-08-25T05:49:37.373Z,9.4
2022-08-25T05:51:34.959Z,7.8
2022-08-25T05:59:33.231Z,8.3
2022-08-25T06:05:25.956Z,9.6
2022-08-25T06:15:21.767Z,7.3
2022-08-25T06:17:19.354Z,7.7
2022-08-25T06:19:16.919Z,7.4
2022-08-25T06:21:22.427Z,7.1
2022-08-25T06:23:19.992Z,7.4
2022-08-25T06:25:17.798Z,8
2022-08-25T06:27:15.118Z,6.5
2022-08-25T06:29:12.701Z,7
2022-08-25T06:33:07.825Z,7.2
2022-08-25T06:35:13.375Z,8.1
2022-08-25T06:37:10.933Z,6.3
2022-08-25T06:39:08.511Z,7.7
2022-08-25T06:40:11.466Z,6.1
2022-08-25T06:42:08.796Z,6.2
2022-08-25T06:44:06.336Z,7.2
2022-08-25T06:50:07.021Z,4.7
2022-08-25T06:52:04.547Z,4.7
2022-08-25T06:54:02.107Z,4.3
2022-08-25T06:56:03.377Z,4.6
2022-08-25T06:57:57.207Z,6
2022-08-25T06:59:54.740Z,5.5
2022-08-25T07:02:00.297Z,5.3
2022-08-25T07:03:57.866Z,5.2
2022-08-25T07:05:55.370Z,6
2022-08-25T07:07:52.921Z,5.1
2022-08-25T07:15:51.653Z,5.5
2022-08-25T07:19:46.757Z,6
2022-08-25T07:21:44.282Z,5.5
2022-08-25T07:23:41.803Z,6.3
2022-08-25T07:25:39.136Z,7.5
2022-08-25T07:29:42.804Z,7
2022-08-25T07:31:39.743Z,6.1
2022-08-25T07:33:37.221Z,5.1
2022-08-25T07:34:39.970Z,6.2
2022-08-25T07:36:37.486Z,4.5
2022-08-25T07:38:35.023Z,5.3
2022-08-25T07:40:32.661Z,5
2022-08-25T07:44:35.545Z,5.8
2022-08-25T07:46:33.306Z,5.4
2022-08-25T07:48:30.587Z,3.8
2022-08-25T07:50:28.112Z,3.3
2022-08-25T07:52:25.588Z,4.8
2022-08-25T07:54:23.119Z,4.4
2022-08-25T07:56:28.660Z,3.9
2022-08-25T07:58:26.205Z,5
2022-08-25T08:00:24.651Z,5.3
2022-08-25T08:02:21.228Z,7
2022-08-25T08:04:18.683Z,4.4
2022-08-25T08:06:16.179Z,4.8
2022-08-25T08:08:13.665Z,3.9
2022-08-25T08:12:16.630Z,4.4
2022-08-25T08:14:14.109Z,3.8
2022-08-25T08:16:11.688Z,3.6
2022-08-25T08:18:09.093Z,4
2022-08-25T08:26:07.030Z,4.1
2022-08-25T08:30:21.152Z,3.4
2022-08-25T08:32:18.798Z,4.3
2022-08-25T08:34:16.123Z,3
2022-08-25T08:36:21.560Z,4
2022-08-25T08:40:16.605Z,4.4
2022-08-25T08:42:16.902Z,4.5
2022-08-25T08:44:11.443Z,3.2
2022-08-25T08:46:08.919Z,4.2
2022-08-25T08:48:06.642Z,4.4
2022-08-25T08:50:11.794Z,4
2022-08-25T08:52:09.222Z,3.5
2022-08-25T08:54:06.721Z,4.2
2022-08-25T08:56:04.122Z,4
2022-08-25T08:58:01.574Z,3.4
2022-08-25T08:59:59.002Z,3.2
2022-08-25T09:01:56.530Z,3.7
2022-08-25T09:04:01.965Z,4.1
2022-08-25T09:05:59.289Z,4.3
2022-08-25T09:09:54.164Z,5.1
2022-08-25T09:11:51.582Z,4.3
2022-08-25T09:13:48.992Z,3.9
2022-08-25T09:17:54.410Z,3.6
2022-08-25T09:19:49.251Z,3.6
2022-08-25T09:21:46.657Z,4.8
2022-08-25T09:22:49.342Z,4.4
2022-08-25T09:24:46.774Z,3.9
2022-08-25T09:26:44.159Z,4
2022-08-25T09:28:41.590Z,4.7
2022-08-25T09:30:47.032Z,3.5
2022-08-25T09:32:48.757Z,3.6
2022-08-25T09:34:41.809Z,4.3
2022-08-25T09:42:31.414Z,3.1
2022-08-25T09:44:36.811Z,4
2022-08-25T09:46:34.291Z,3.7
2022-08-25T09:48:31.604Z,4.2
2022-08-25T09:50:29.011Z,3.4
2022-08-25T09:52:26.373Z,2.6
2022-08-25T09:54:25.674Z,2.1
2022-08-25T09:56:21.143Z,9.1
2022-08-25T09:58:26.522Z,4.4
2022-08-25T10:00:23.960Z,3.5
2022-08-25T10:02:21.330Z,3.2
2022-08-25T10:04:20.834Z,4.2
2022-08-25T10:06:16.078Z,3.5
2022-08-25T10:08:14.531Z,3.5
2022-08-25T10:12:16.401Z,3.7
2022-08-25T10:14:13.555Z,3.3
2022-08-25T10:16:17.720Z,3.9
2022-08-25T10:17:13.635Z,3
2022-08-25T10:19:10.990Z,3.4
2022-08-25T10:21:08.330Z,2.9
2022-08-25T10:23:05.811Z,3.4
2022-08-25T10:25:11.065Z,3.6
2022-08-25T10:27:08.385Z,3.2
2022-08-25T10:29:05.736Z,3.4
2022-08-25T10:31:03.152Z,2.7
2022-08-25T10:33:00.512Z,3.3
2022-08-25T10:34:57.770Z,3
2022-08-25T10:36:56.055Z,2.9
2022-08-25T10:39:01.570Z,2.9
2022-08-25T10:40:57.791Z,2.2
2022-08-25T10:50:45.560Z,3.2
2022-08-25T10:52:49.822Z,1.9
2022-08-25T10:54:47.143Z,3.2
2022-08-25T10:56:44.464Z,3.3
2022-08-25T10:58:41.784Z,5.1
2022-08-25T11:02:36.380Z,2.8
2022-08-25T11:04:33.675Z,3.9
2022-08-25T11:06:40.604Z,2.9
2022-08-25T11:08:37.863Z,4.2
2022-08-25T11:10:35.125Z,3.4
2022-08-25T11:11:37.775Z,2.9
2022-08-25T11:13:35.075Z,2.8
2022-08-25T11:15:32.315Z,3
2022-08-25T11:17:29.598Z,2.8
2022-08-25T11:19:34.886Z,2.9
2022-08-25T11:21:32.120Z,2.5
2022-08-25T11:23:29.356Z,2.6
2022-08-25T11:27:24.509Z,2.2
2022-08-25T11:29:20.945Z,1.9
2022-08-25T11:31:18.193Z,3
2022-08-25T11:33:23.414Z,2.7
2022-08-25T11:35:20.499Z,2.1
2022-08-25T11:37:17.979Z,1.9
2022-08-25T11:39:14.780Z,2.3
2022-08-25T11:41:11.886Z,2.1
2022-08-25T11:43:08.972Z,1.8
2022-08-25T11:47:14.698Z,1.6
2022-08-25T11:51:05.305Z,1.1
2022-08-25T11:53:02.351Z,1.8
2022-08-25T11:56:56.367Z,2.3
2022-08-25T11:58:53.360Z,1.3
2022-08-25T12:00:58.478Z,1.7
2022-08-25T12:02:58.459Z,2.1
2022-08-25T12:04:53.013Z,2.5
2022-08-25T12:07:14.671Z,3.6
2022-08-25T12:09:11.622Z,1.1
2022-08-25T12:11:11.094Z,2.1
2022-08-25T12:13:13.606Z,2.2
2022-08-25T12:15:10.595Z,1.7
2022-08-25T12:17:07.433Z,2.1
2022-08-25T12:19:04.363Z,1.6
2022-08-25T12:21:01.199Z,1.4
2022-08-25T12:22:58.094Z,2
2022-08-25T12:24:54.941Z,1.3
2022-08-25T12:26:59.913Z,2.3
2022-08-25T12:28:56.748Z,2
2022-08-25T12:30:53.672Z,1.6
2022-08-25T12:32:50.419Z,2.3
2022-08-25T12:34:47.232Z,1.5
2022-08-25T12:38:43.278Z,3.2
2022-08-25T12:40:45.800Z,1.6
2022-08-25T12:42:42.572Z,1.4
2022-08-25T12:44:39.346Z,2.2
2022-08-25T12:46:36.156Z,2
2022-08-25T12:48:32.908Z,1.8
2022-08-25T12:50:29.641Z,1.8
2022-08-25T12:52:27.801Z,1.9
2022-08-25T12:54:31.288Z,1.9
2022-08-25T12:58:31.189Z,1.3
2022-08-25T12:59:27.161Z,1.9
2022-08-25T13:01:35.808Z,2.1
2022-08-25T13:03:20.716Z,2.1
2022-08-25T13:05:17.270Z,1.6
2022-08-25T13:07:22.117Z,2
2022-08-25T13:13:12.206Z,1.9
2022-08-25T13:17:05.701Z,1.6
2022-08-25T13:19:02.279Z,1.7
2022-08-25T13:21:07.138Z,2
2022-08-25T13:23:04.115Z,2.1
2022-08-25T13:25:00.497Z,2.1
2022-08-25T13:26:57.189Z,2.7
2022-08-25T13:28:53.870Z,1.7
2022-08-25T13:30:50.529Z,1.7
2022-08-25T13:32:47.178Z,1.5
2022-08-25T13:36:53.978Z,1.3
2022-08-25T13:38:46.585Z,2.1
2022-08-25T13:40:43.207Z,1.5
2022-08-25T13:44:35.249Z,1.3
2022-08-25T13:46:32.054Z,2.2
2022-08-25T13:48:36.665Z,2
2022-08-25T13:52:29.870Z,3.9
2022-08-25T13:53:32.278Z,3.1
2022-08-25T13:55:28.855Z,3.1
2022-08-25T13:57:25.428Z,2.3
2022-08-25T13:59:22.085Z,2.2
2022-08-25T14:03:23.473Z,5
2022-08-25T14:05:19.938Z,2.6
2022-08-25T14:07:19.387Z,1.9
2022-08-25T14:11:12.654Z,2.2
2022-08-25T14:15:10.955Z,1.8
2022-08-25T14:17:21.939Z,1.7
2022-08-25T14:19:03.958Z,2.1
2022-08-25T14:21:00.503Z,1.8
2022-08-25T14:22:58.004Z,1.8
2022-08-25T14:24:53.521Z,2.7
2022-08-25T14:26:53.862Z,1.8
2022-08-25T14:28:54.768Z,3.2
2022-08-25T14:30:51.839Z,2
2022-08-25T14:34:44.244Z,3.4
2022-08-25T14:36:40.444Z,3
2022-08-25T14:38:36.911Z,1.4
2022-08-25T14:40:34.474Z,1.6
2022-08-25T14:44:34.488Z,2.6
2022-08-25T14:46:30.967Z,1.5
2022-08-25T14:47:33.243Z,2.3
2022-08-25T14:49:29.670Z,3.1
2022-08-25T14:51:26.084Z,3.6
2022-08-25T14:53:22.536Z,2.6
2022-08-25T14:55:31.713Z,2.4
2022-08-25T14:57:23.588Z,3.3
2022-08-25T14:59:20.021Z,3.1
2022-08-25T15:05:09.529Z,3
2022-08-25T15:13:04.100Z,2.4
2022-08-25T15:15:00.748Z,3.3
2022-08-25T15:16:57.545Z,1.6
2022-08-25T15:18:54.162Z,1.6
2022-08-25T15:20:50.911Z,2
2022-08-25T15:24:52.623Z,1.8
2022-08-25T15:28:46.295Z,2.9
2022-08-25T15:30:45.580Z,3.7
2022-08-25T15:32:40.060Z,3.3
2022-08-25T15:34:36.985Z,2.6
2022-08-25T15:36:42.037Z,2.4
2022-08-25T15:42:52.224Z,3
2022-08-25T15:48:51.413Z,2.4
2022-08-25T15:50:48.431Z,7.5
2022-08-25T15:52:47.345Z,2.2
2022-08-25T15:54:42.531Z,2.1
2022-08-25T15:56:39.600Z,2
2022-08-25T16:04:36.048Z,2.1
2022-08-25T16:08:30.245Z,3.8
2022-08-25T16:10:27.347Z,2.2
2022-08-25T16:12:24.472Z,2.5
2022-08-25T16:14:21.608Z,2.5
2022-08-25T16:16:26.848Z,6
2022-08-25T16:18:23.932Z,2
2022-08-25T16:22:18.241Z,5.9
2022-08-25T16:24:15.359Z,2.4
2022-08-25T16:26:13.029Z,2.4
2022-08-25T16:28:09.672Z,2.2
2022-08-25T16:30:16.915Z,3.2
2022-08-25T16:32:12.041Z,1.8
2022-08-25T16:34:09.211Z,4.1
2022-08-25T16:37:09.220Z,2.1
2022-08-25T16:39:10.090Z,3.2
2022-08-25T16:41:06.874Z,2.5
2022-08-25T16:45:07.310Z,2.8
2022-08-25T16:47:04.497Z,3.2
2022-08-25T16:49:01.671Z,5.1
2022-08-25T16:52:56.032Z,3
2022-08-25T16:54:53.242Z,3
2022-08-25T16:56:58.515Z,3.3
2022-08-25T16:58:55.715Z,1.7
2022-08-25T17:00:52.990Z,2.7
2022-08-25T17:02:50.157Z,3.8
2022-08-25T17:08:41.789Z,3.7
2022-08-25T17:14:41.511Z,3.5
2022-08-25T17:16:38.767Z,8.4
2022-08-25T17:18:35.962Z,3
2022-08-25T17:20:33.199Z,2.3
2022-08-25T17:22:30.418Z,2.6
2022-08-25T17:24:35.716Z,4.4
2022-08-25T17:26:32.960Z,8
2022-08-25T17:28:30.220Z,4
2022-08-25T17:29:32.862Z,2.9
2022-08-25T17:31:30.866Z,2.4
2022-08-25T17:33:28.023Z,3
2022-08-25T17:35:24.545Z,3.4
2022-08-25T17:37:29.861Z,4.7
2022-08-25T17:39:27.150Z,2.8
2022-08-25T17:45:18.899Z,3
2022-08-25T17:47:16.282Z,2.9
2022-08-25T17:49:13.412Z,4.1
2022-08-25T17:51:18.696Z,4.7
2022-08-25T17:53:16.347Z,7.9
2022-08-25T17:55:13.265Z,7.9
2022-08-25T17:57:10.514Z,3.8
2022-08-25T17:59:07.834Z,3.8
2022-08-25T18:01:05.097Z,3.8
2022-08-25T18:03:02.424Z,3.2
2022-08-25T18:05:07.744Z,3.7
2022-08-25T18:09:02.572Z,4.6
2022-08-25T18:10:59.668Z,3.8
2022-08-25T18:12:56.910Z,3.8
2022-08-25T18:16:51.519Z,3.7
2022-08-25T18:18:57.190Z,2.7
2022-08-25T18:20:54.246Z,4.2
2022-08-25T18:22:51.516Z,3.1
2022-08-25T18:23:54.188Z,2.9
2022-08-25T18:25:51.499Z,3.3
2022-08-25T18:27:48.795Z,3.1
2022-08-25T18:31:52.190Z,2.8
2022-08-25T18:33:51.101Z,3.7
2022-08-25T18:39:40.790Z,3
2022-08-25T18:41:38.223Z,3.3
2022-08-25T18:43:35.455Z,2.9
2022-08-25T18:45:40.824Z,6.4
2022-08-25T18:47:38.303Z,4.6
2022-08-25T18:53:37.077Z,6.2
2022-08-25T18:55:27.538Z,3.7
2022-08-25T19:01:28.534Z,3.9
2022-08-25T19:03:24.994Z,4.4
2022-08-25T19:05:22.346Z,4.8
2022-08-25T19:07:19.715Z,6.7
2022-08-25T19:09:17.165Z,5
2022-08-25T19:11:14.438Z,6.2
2022-08-25T19:13:22.477Z,4.4
2022-08-25T19:15:17.257Z,7.9
2022-08-25T19:17:14.587Z,5.3
2022-08-25T19:19:41.298Z,6.4
2022-08-25T19:21:38.641Z,5.6
2022-08-25T19:23:36.010Z,4.9
2022-08-25T19:25:41.892Z,6.6
2022-08-25T19:27:39.537Z,5.3
2022-08-25T19:29:36.926Z,5.9
2022-08-25T19:31:34.345Z,4.3
2022-08-25T19:33:43.995Z,3.1
2022-08-25T19:35:31.774Z,3.7
2022-08-25T19:37:26.431Z,5.2
2022-08-25T19:39:31.836Z,5.7
2022-08-25T19:41:29.235Z,5.2
2022-08-25T19:43:26.632Z,4.8
2022-08-25T19:45:24.022Z,4.8
2022-08-25T19:47:21.435Z,5.2
2022-08-25T19:49:18.836Z,4.5
2022-08-25T19:51:16.258Z,7
2022-08-25T19:53:21.647Z,6.2
2022-08-25T19:55:19.049Z,6.8
2022-08-25T19:57:28.473Z,7.3
2022-08-25T19:59:13.868Z,5.9
2022-08-25T20:01:11.366Z,4.5
2022-08-25T20:03:09.065Z,5
2022-08-25T20:07:12.500Z,6.2
2022-08-25T20:11:06.385Z,4.3
2022-08-25T20:12:09.338Z,4.7
2022-08-25T20:16:04.034Z,8
2022-08-25T20:25:59.077Z,11.8
2022-08-25T20:27:56.517Z,13.3
2022-08-25T20:29:53.957Z,14
2022-08-25T20:31:51.425Z,14.8
2022-08-25T20:34:00.311Z,14.5
2022-08-25T20:35:54.287Z,15.6
2022-08-25T20:39:49.253Z,16.2
2022-08-25T20:41:48.317Z,15.8
2022-08-25T20:43:44.103Z,17.8
2022-08-25T20:45:41.618Z,22.4
2022-08-25T20:47:47.034Z,21.1
2022-08-25T20:51:41.977Z,23.1
2022-08-25T20:53:39.424Z,26.2
2022-08-25T20:55:42.371Z,25.7
2022-08-25T20:57:34.377Z,26.1
2022-08-25T20:59:31.833Z,31.6
2022-08-25T21:01:37.420Z,32.3
2022-08-25T21:03:34.787Z,33.2
2022-08-25T21:05:32.272Z,34.4
2022-08-25T21:12:27.447Z,37
2022-08-25T21:18:31.570Z,38.8
2022-08-25T21:20:25.406Z,39
2022-08-25T21:22:22.885Z,37.4
2022-08-25T21:24:20.378Z,36.9
2022-08-25T21:26:17.857Z,37.7
2022-08-25T21:28:23.351Z,41.7
2022-08-25T21:30:20.825Z,37.9
2022-08-25T21:32:18.325Z,36.3
2022-08-25T21:34:15.821Z,36.6
2022-08-25T21:36:13.336Z,35.6
2022-08-25T21:38:10.846Z,39.5
2022-08-25T21:44:11.356Z,39.6
2022-08-25T21:50:03.887Z,37.2
2022-08-25T21:52:01.391Z,36.9
2022-08-25T21:53:58.903Z,38.9
2022-08-25T21:58:01.954Z,37.4
2022-08-25T21:59:59.483Z,34.8
2022-08-25T22:01:02.278Z,38.8
2022-08-25T22:04:57.256Z,32.6
2022-08-25T22:12:55.317Z,35
2022-08-25T22:14:52.822Z,32.2
2022-08-25T22:16:50.477Z,29.9
2022-08-25T22:18:47.888Z,36.1
2022-08-25T22:20:45.424Z,30.1
2022-08-25T22:22:50.927Z,37.3
2022-08-25T22:26:49.126Z,34.6
2022-08-25T22:28:45.935Z,34.5
2022-08-25T22:32:40.348Z,31.5
2022-08-25T22:34:40.134Z,33.7
2022-08-25T22:36:43.136Z,30.8
2022-08-25T22:38:40.697Z,32.4
2022-08-25T22:40:38.256Z,30
2022-08-25T22:42:35.770Z,28.7
2022-08-25T22:44:33.303Z,28.7
2022-08-25T22:46:30.849Z,33.3
2022-08-25T22:48:28.403Z,30.3
2022-08-25T22:50:33.884Z,29.6
2022-08-25T22:52:33.296Z,28
2022-08-25T22:56:51.585Z,29.5
2022-08-25T22:58:51.721Z,26.7
2022-08-25T23:02:52.243Z,27
2022-08-25T23:04:49.752Z,24
2022-08-25T23:06:47.249Z,26.5
2022-08-25T23:08:44.790Z,24.2
2022-08-25T23:10:42.302Z,25.5
2022-08-25T23:12:39.845Z,22.5
2022-08-25T23:14:37.395Z,20.8
2022-08-25T23:16:42.976Z,19.9
2022-08-25T23:18:43.608Z,22.6
2022-08-25T23:20:38.001Z,23.1
2022-08-25T23:22:35.517Z,20.7
2022-08-25T23:24:33.159Z,22.6
2022-08-25T23:26:30.610Z,20.6
2022-08-25T23:32:31.228Z,16.4
2022-08-25T23:34:28.793Z,16.1
2022-08-25T23:36:26.358Z,15.6
2022-08-25T23:38:23.869Z,14
2022-08-25T23:40:21.512Z,15.1
2022-08-25T23:42:18.994Z,12.9
2022-08-25T23:44:24.568Z,14.3
2022-08-25T23:46:22.032Z,11.8
2022-08-25T23:48:19.606Z,11.5
2022-08-25T23:49:22.390Z,11.8
2022-08-25T23:51:19.969Z,13.2
2022-08-25T23:53:17.519Z,11.3
2022-08-25T23:59:18.184Z,11.4
